Latest Weather Observations for Milingimbi

IDD60801

Issued at 6:03 pm CST Sunday 1 March 2015 (issued every 30 minutes, with the page automatically refreshed every 10 minutes)

About weather observations | Map of weather stations | Latest weather observations for NT | Other Formats
Station Details ID: 014404 Name: MILINGIMBI AIRPORT Lat: -12.09 Lon: 134.89 Height: 15.0 m
Data from the previous 72 hours. | See also: Recent months at Milingimbi
Date/Time
CST
Temp
°C
App
Temp
°C
Dew
Point
Rel
Hum
%
Delta-T
°C
Wind Press
QNH
hPa
Press
MSL
hPa
Rain
since 9 am
mm
Dir
 
Spd
km/h
Gust
km/h
Spd
kts
Gust
kts
01/06:00pm 28.4 32.9 26.4 89 1.4 NW 15 20 8 11 1002.8 1002.7 0.0
01/05:30pm 28.9 33.5 25.9 84 2.1 NNW 13 19 7 10 1002.8 - 0.0
01/05:00pm 28.7 33.6 25.9 85 2.0 NNW 11 17 6 9 1002.7 - 0.0
01/04:30pm 28.5 33.4 25.9 86 1.8 NW 11 17 6 9 1002.7 - 0.0
01/04:00pm 28.4 33.7 25.8 86 1.8 WNW 9 13 5 7 1002.5 - 0.0
01/03:30pm 28.4 33.1 25.6 85 2.0 WNW 11 15 6 8 1003.1 - 0.0
01/03:00pm 28.9 33.5 25.3 81 2.5 NW 11 15 6 8 1003.0 1002.9 0.0
01/02:30pm 29.4 33.8 25.6 80 2.7 WNW 13 17 7 9 1003.5 - 0.0
01/02:00pm 29.4 33.8 25.6 80 2.7 WNW 13 19 7 10 1003.9 - 0.0
01/01:30pm 29.4 33.5 25.2 78 3.0 WNW 13 17 7 9 1004.8 - 0.0
01/01:00pm 29.5 34.1 24.8 76 3.3 WNW 9 15 5 8 1005.5 - 0.0
01/12:30pm 29.4 34.7 25.2 78 3.0 W 7 9 4 5 1005.9 - 0.0
01/12:00pm 29.0 33.2 24.8 78 2.9 WSW 11 15 6 8 1005.8 1005.7 0.0
01/11:30am 29.0 32.4 24.6 77 3.1 W 15 20 8 11 1006.3 - 0.0
01/11:00am 29.1 32.6 24.9 78 2.9 W 15 19 8 10 1006.7 - 0.0
01/10:30am 28.2 32.7 24.6 81 2.5 W 9 13 5 7 1007.2 - 0.0
01/10:00am 27.8 32.2 24.4 82 2.4 WSW 9 13 5 7 1007.4 - 0.0
01/09:30am 27.6 31.7 24.6 84 2.1 WSW 11 15 6 8 1007.0 - 0.0
01/09:00am 27.4 31.6 24.7 85 1.9 W 11 17 6 9 1007.0 1006.9 0.0
01/08:30am 27.2 31.3 24.6 86 1.8 W 11 15 6 8 1006.9 - 0.0
01/08:00am 27.0 30.7 24.6 87 1.7 W 13 17 7 9 1006.6 - 0.0
01/07:30am 27.0 31.1 24.6 87 1.7 W 11 15 6 8 1006.3 - 0.0
01/07:00am 27.1 30.8 24.6 86 1.7 W 13 17 7 9 1005.9 - 0.0
01/06:30am 27.1 31.4 24.9 88 1.5 W 11 15 6 8 1005.6 - 0.0
01/06:00am 26.8 31.2 25.0 90 1.3 W 11 15 6 8 1005.4 1005.3 0.0
01/05:30am 26.2 30.6 24.4 90 1.2 WNW 9 13 5 7 1004.8 - 0.0
01/05:00am 26.0 29.8 24.0 89 1.4 W 11 13 6 7 1004.2 - 0.0
01/04:30am 25.8 30.3 23.7 88 1.4 W 6 9 3 5 1004.4 - 0.0
01/04:00am 25.8 30.1 23.7 88 1.4 W 7 9 4 5 1004.4 - 0.0
01/03:30am 25.7 30.0 23.6 88 1.4 WSW 7 9 4 5 1004.5 - 0.0
01/03:00am 25.7 30.2 23.6 88 1.4 WSW 6 9 3 5 1005.0 1004.9 0.0
01/02:30am 25.7 30.0 23.6 88 1.4 W 7 9 4 5 1005.3 - 0.0
01/02:00am 25.7 29.9 23.4 87 1.6 WSW 7 9 4 5 1005.5 - 0.0
01/01:30am 25.7 29.6 23.0 85 1.8 WSW 7 9 4 5 1005.6 - 0.0
01/01:00am 26.0 29.4 23.3 85 1.8 WSW 11 15 6 8 1005.9 - 0.0
01/12:30am 26.2 30.0 24.1 88 1.4 WSW 11 15 6 8 1006.1 - 0.0
01/12:00am 26.9 30.9 24.4 86 1.7 W 11 15 6 8 1006.7 1006.6 0.0
 
Date/Time
CST
Temp
°C
App
Temp
°C
Dew
Point
Rel
Hum
%
Delta-T
°C
Wind Press
QNH
hPa
Press
MSL
hPa
Rain
since 9 am
mm
Dir
 
Spd
km/h
Gust
km/h
Spd
kts
Gust
kts
28/11:30pm 27.2 30.4 24.3 84 2.0 WNW 15 19 8 10 1006.8 - 0.0
28/11:00pm 27.7 31.3 24.3 82 2.4 WNW 13 15 7 8 1006.5 - 0.0
28/10:30pm 28.2 32.1 24.8 82 2.4 NW 13 17 7 9 1006.2 - 0.0
28/10:00pm 28.5 32.8 25.5 84 2.1 NW 13 20 7 11 1006.2 - 0.0
28/09:30pm 28.5 32.8 25.5 84 2.1 NNW 13 17 7 9 1005.9 - 0.0
28/09:00pm 28.5 32.8 25.5 84 2.1 NNW 13 19 7 10 1005.5 1005.4 0.0
28/08:30pm 28.5 33.3 25.7 85 2.0 NNW 11 17 6 9 1005.3 - 0.0
28/08:00pm 28.6 33.1 25.8 85 2.0 NW 13 19 7 10 1005.1 - 0.0
28/07:30pm 28.5 33.7 25.7 85 2.0 NNW 9 15 5 8 1005.1 - 0.0
28/07:00pm 28.8 33.2 25.6 83 2.3 NW 13 20 7 11 1005.3 - 0.0
28/06:30pm 29.0 33.6 25.4 81 2.5 NW 11 17 6 9 1004.8 - 0.0
28/06:00pm 29.2 33.7 25.2 79 2.8 NNW 11 17 6 9 1004.5 1004.4 0.0
28/05:30pm 29.4 32.6 24.9 77 3.2 NW 17 24 9 13 1004.2 - 0.0
28/05:00pm 30.0 33.4 25.3 76 3.3 NNW 17 26 9 14 1004.0 - 0.0
28/04:30pm 30.3 33.2 25.1 73 3.7 NNW 19 26 10 14 1003.8 - 0.0
28/04:00pm 31.4 34.6 25.5 71 4.2 NNW 19 28 10 15 1003.8 - 0.0
28/03:30pm 30.5 33.9 25.3 74 3.7 N 17 26 9 14 1004.1 - 0.0
28/03:00pm 30.8 34.2 25.2 72 4.0 N 17 26 9 14 1004.3 1004.2 0.0
28/02:30pm 31.9 35.8 25.5 69 4.5 N 15 24 8 13 1004.6 - 0.0
28/02:00pm 31.0 34.9 25.4 72 4.0 N 15 22 8 12 1005.1 - 0.0
28/01:30pm 30.9 35.3 25.0 71 4.2 NNW 11 19 6 10 1005.6 - 0.0
28/01:00pm 29.9 34.3 25.0 75 3.4 NNE 11 17 6 9 1006.5 - 0.0
28/12:30pm 30.1 34.4 24.9 73 3.7 NE 11 15 6 8 1006.8 - 0.0
28/12:00pm 30.5 35.1 24.2 69 4.4 NE 7 15 4 8 1006.9 1006.8 0.0
28/11:30am 31.2 35.6 23.8 64 5.1 SW 7 13 4 7 1007.0 - 0.0
28/11:00am 30.2 33.9 23.9 69 4.4 NW 11 17 6 9 1007.4 - 0.0
28/10:30am 30.3 33.9 23.7 68 4.6 W 11 17 6 9 1007.7 - 0.0
28/10:00am 29.0 31.8 23.7 73 3.7 W 15 22 8 12 1007.9 - 0.0
28/09:30am 28.4 31.0 23.3 74 3.5 W 15 22 8 12 1007.6 - 0.0
28/09:00am 28.0 30.5 23.1 74 3.4 WSW 15 20 8 11 1007.4 1007.3 0.0
28/08:30am 27.8 30.7 23.2 76 3.1 WSW 13 24 7 13 1007.2 - 0.0
28/08:00am 26.9 29.8 23.2 80 2.5 WSW 13 20 7 11 1006.7 - 0.0
28/07:30am 25.7 29.6 23.0 85 1.8 WSW 7 11 4 6 1006.3 - 0.0
28/07:00am 25.1 29.0 23.0 88 1.4 W 7 11 4 6 1006.4 - 0.0
28/06:30am 25.1 29.0 23.0 88 1.4 SW 7 11 4 6 1006.5 - 0.0
28/06:00am 25.3 28.8 22.8 86 1.7 WSW 9 15 5 8 1006.3 1006.2 0.0
28/05:30am 25.4 28.6 23.1 87 1.6 WSW 11 15 6 8 1006.1 - 0.0
28/05:00am 25.8 28.8 23.3 86 1.7 W 13 19 7 10 1006.0 - 0.0
28/04:30am 25.9 29.5 23.8 88 1.4 W 11 15 6 8 1005.9 - 0.0
28/04:00am 26.2 29.9 23.9 87 1.6 W 11 15 6 8 1005.7 - 0.0
28/03:30am 26.2 29.6 24.1 88 1.4 W 13 17 7 9 1005.7 - 0.0
28/03:00am 26.2 30.0 24.1 88 1.4 W 11 13 6 7 1005.7 1005.6 0.0
28/02:30am 26.1 30.2 24.0 88 1.4 WNW 9 11 5 6 1006.2 - 0.0
28/02:00am 26.2 30.4 24.1 88 1.4 WNW 9 13 5 7 1006.1 - 0.0
28/01:30am 26.3 30.3 23.8 86 1.7 WNW 9 11 5 6 1006.4 - 0.0
28/01:00am 26.5 30.4 23.6 84 2.0 NW 9 13 5 7 1006.6 - 0.0
28/12:30am 26.4 28.7 23.5 84 2.0 WNW 17 22 9 12 1006.6 - 0.0
28/12:00am 26.5 30.7 23.4 83 2.1 ESE 7 11 4 6 1007.6 1007.5 0.0
 
Date/Time
CST
Temp
°C
App
Temp
°C
Dew
Point
Rel
Hum
%
Delta-T
°C
Wind Press
QNH
hPa
Press
MSL
hPa
Rain
since 9 am
mm
Dir
 
Spd
km/h
Gust
km/h
Spd
kts
Gust
kts
27/11:30pm 26.5 28.9 23.0 81 2.4 W 15 20 8 11 1006.8 - 0.0
27/11:00pm 26.7 28.6 23.4 82 2.3 W 19 24 10 13 1007.2 - 0.0
27/10:30pm 27.0 30.6 23.7 82 2.3 W 11 20 6 11 1008.2 - 0.0
27/10:00pm 26.6 30.8 23.1 81 2.4 E 6 13 3 7 1009.0 - 0.0
27/09:30pm 27.6 32.4 24.2 82 2.4 SW 6 7 3 4 1009.0 - 0.0
27/09:00pm 27.6 31.2 23.8 80 2.6 W 11 17 6 9 1008.3 1008.2 0.0
27/08:30pm 27.6 30.7 24.2 82 2.4 WNW 15 19 8 10 1007.8 - 0.0
27/08:00pm 27.7 30.1 24.3 82 2.4 WNW 19 24 10 13 1007.0 - 0.0
27/07:30pm 28.1 30.8 24.1 79 2.8 WNW 17 24 9 13 1006.2 - 0.0
27/07:00pm 28.4 30.6 24.2 78 2.9 NW 20 30 11 16 1005.9 - 0.0
27/06:30pm 28.9 31.4 25.3 81 2.5 NW 22 33 12 18 1005.4 - 0.0
27/06:00pm 29.1 31.9 24.9 78 2.9 NW 19 30 10 16 1004.8 1004.7 0.0
27/05:30pm 29.2 32.1 25.4 80 2.7 NNW 20 32 11 17 1004.5 - 0.0
27/05:00pm 30.1 32.8 24.7 73 3.8 NW 19 28 10 15 1004.3 - 0.0
27/04:30pm 29.4 31.5 23.1 69 4.3 WNW 17 22 9 12 1004.6 - 0.0
27/04:00pm 30.3 33.7 24.7 72 3.9 NNW 15 24 8 13 1004.5 - 0.0
27/03:30pm 30.6 33.6 24.0 68 4.6 NNW 15 24 8 13 1004.1 - 0.0
27/03:00pm 32.2 34.3 23.7 61 5.9 NNW 19 28 10 15 1004.1 1004.0 0.0
27/02:30pm 32.0 34.7 24.8 65 5.1 NW 19 30 10 16 1004.3 - 0.0
27/02:00pm 32.5 34.4 23.7 59 6.1 NW 20 30 11 16 1004.6 - 0.0
27/01:30pm 31.6 34.0 23.7 63 5.5 NNW 17 28 9 15 1005.0 - 0.0
27/01:00pm 32.2 34.6 24.3 63 5.5 NW 19 28 10 15 1005.9 - 0.0
27/12:30pm 32.9 35.0 23.8 58 6.3 WNW 19 26 10 14 1006.4 - 0.0
27/12:00pm 32.6 35.2 23.3 58 6.4 WNW 15 22 8 12 1006.9 1006.8 0.0
27/11:30am 32.1 33.7 22.2 56 6.7 W 17 24 9 13 1007.2 - 0.0
27/11:00am 31.3 33.3 22.9 61 5.8 W 17 24 9 13 1007.5 - 0.0
27/10:30am 30.1 32.4 22.8 65 5.0 W 15 22 8 12 1007.7 - 0.0
27/10:00am 29.7 32.8 23.6 69 4.2 WSW 13 19 7 10 1007.9 - 0.0
27/09:30am 29.3 32.5 23.7 72 3.9 W 13 20 7 11 1007.9 - 0.0
27/09:00am 28.1 30.6 23.2 74 3.4 WSW 15 20 8 11 1007.8 1007.7 5.0
27/08:30am 27.5 30.7 23.1 77 3.0 W 11 17 6 9 1007.8 - 5.0
27/08:00am 26.1 30.2 23.2 84 2.0 W 7 9 4 5 1007.7 - 5.0
27/07:30am 25.5 29.6 23.2 87 1.6 WSW 7 7 4 4 1007.0 - 5.0
27/07:00am 25.3 29.4 23.2 88 1.4 WSW 7 11 4 6 1006.6 - 5.0
27/06:30am 25.2 29.5 23.3 89 1.3 SW 6 7 3 4 1006.6 - 5.0
27/06:00am 25.2 29.3 23.3 89 1.3 SW 7 9 4 5 1006.5 1006.4 5.0
27/05:30am 25.4 29.7 23.3 88 1.4 WSW 6 7 3 4 1006.1 - 5.0
27/05:00am 25.4 29.4 23.1 87 1.6 W 7 9 4 5 1006.1 - 5.0
27/04:30am 25.6 29.6 23.1 86 1.7 WSW 7 11 4 6 1006.0 - 5.0
27/04:00am 25.6 29.9 23.3 87 1.6 W 6 9 3 5 1005.9 - 5.0
27/03:30am 25.7 29.8 23.2 86 1.7 W 7 9 4 5 1005.9 - 5.0
27/03:00am 25.8 29.5 23.3 86 1.7 W 9 11 5 6 1006.2 1006.1 5.0
27/02:30am 25.9 29.5 23.0 84 2.0 W 9 15 5 8 1006.2 - 5.0
27/02:00am 26.0 29.1 22.9 83 2.1 W 11 13 6 7 1006.5 - 5.0
27/01:30am 26.1 29.7 23.0 83 2.1 WSW 9 15 5 8 1006.7 - 5.0
27/01:00am 26.1 30.0 23.6 86 1.7 WSW 9 13 5 7 1006.9 - 5.0
27/12:30am 26.2 29.7 23.5 85 1.8 WSW 11 13 6 7 1006.9 - 5.0
27/12:00am 26.3 30.7 23.8 86 1.7 WSW 7 13 4 7 1007.2 1007.1 5.0
 
Date/Time
CST
Temp
°C
App
Temp
°C
Dew
Point
Rel
Hum
%
Delta-T
°C
Wind Press
QNH
hPa
Press
MSL
hPa
Rain
since 9 am
mm
Dir
 
Spd
km/h
Gust
km/h
Spd
kts
Gust
kts
26/11:30pm 26.6 31.1 23.7 84 2.0 ESE 6 9 3 5 1007.9 - 5.0
26/11:00pm 26.7 30.9 23.4 82 2.3 SSW 7 11 4 6 1007.7 - 5.0
26/10:30pm 26.9 30.7 23.4 81 2.4 S 9 11 5 6 1007.3 - 5.0
26/10:00pm 27.0 31.5 23.9 83 2.1 S 7 11 4 6 1007.3 - 5.0
26/09:30pm 27.4 32.4 24.8 86 1.8 S 7 11 4 6 1007.4 - 5.0
26/09:00pm 27.4 32.3 24.7 85 1.9 S 7 9 4 5 1007.1 1007.0 5.0
26/08:30pm 27.5 32.4 24.7 85 1.9 S 7 9 4 5 1006.9 - 5.0
26/08:00pm 27.5 32.4 24.7 85 1.9 S 7 7 4 4 1006.6 - 5.0
26/07:30pm 27.8 32.8 24.8 84 2.1 S 7 9 4 5 1006.0 - 5.0
26/07:00pm 28.2 33.8 24.8 82 2.4 WSW 4 6 2 3 1005.8 - 5.0
26/06:30pm 28.6 32.1 24.8 80 2.7 WNW 15 19 8 10 1005.4 - 5.0

Other Formats:

Comma delimited format used in spreadsheet applications
http://www.bom.gov.au/fwo/IDD60801/IDD60801.94140.axf

JavaScript Object Notation format (JSON) in row-major order
http://www.bom.gov.au/fwo/IDD60801/IDD60801.94140.json